Terminal Aerodrome Forecast
Issued by NWS

Home | Current Version | Previous Version | Text Only | Print | Product List | Glossary On
Versions: 1 2 3 4 5 6 7 8 9 10 11 12 13 14 15 16 17
000
FTUS43 KDLH 171924 AAA
TAFBRD
TAF AMD
KBRD 171924Z 1719/1818 29007KT 6SM -RA BR BKN035 OVC050
      TEMPO 1719/1721 5SM -RA BR BKN015 OVC035
     FM172200 32005KT P6SM OVC040
     FM180200 34007KT P6SM BKN050
     FM181100 33009KT P6SM SCT050
     FM181600 32013G19KT P6SM BKN100=

USA.gov is the U.S. government's official web portal to all federal, state and local government web resources and services.